createdAt,value
2023-02-05T00:00:15.699Z,9.6
2023-02-05T00:01:23.890Z,4.9
2023-02-05T00:02:33.768Z,6.7
2023-02-05T00:03:43.757Z,6.9
2023-02-05T00:04:53.630Z,6.8
2023-02-05T00:06:01.323Z,6.7
2023-02-05T00:07:11.628Z,15.3
2023-02-05T00:08:21.701Z,11.5
2023-02-05T00:09:32.859Z,10.5
2023-02-05T00:10:43.808Z,12.6
2023-02-05T00:11:55.199Z,18.1
2023-02-05T00:13:05.370Z,17
2023-02-05T00:14:16.215Z,15.8
2023-02-05T00:15:25.769Z,7.8
2023-02-05T00:16:34.875Z,6.9
2023-02-05T00:17:42.998Z,9.2
2023-02-05T00:18:51.042Z,5.9
2023-02-05T00:20:02.020Z,6.9
2023-02-05T00:21:10.109Z,6.9
2023-02-05T00:22:20.089Z,9.1
2023-02-05T00:23:29.041Z,19.8
2023-02-05T00:24:38.853Z,7.9
2023-02-05T00:25:47.926Z,7.7
2023-02-05T00:26:56.285Z,18.3
2023-02-05T00:28:04.675Z,13.6
2023-02-05T00:29:13.109Z,9
2023-02-05T00:30:23.849Z,6.3
2023-02-05T00:31:34.318Z,11.8
2023-02-05T00:32:43.297Z,9.4
2023-02-05T00:33:54.416Z,18.3
2023-02-05T00:35:05.468Z,17.4
2023-02-05T00:36:16.204Z,12.1
2023-02-05T00:37:25.172Z,8.9
2023-02-05T00:38:34.674Z,5.4
2023-02-05T00:39:44.906Z,6.5
2023-02-05T00:40:55.067Z,5.7
2023-02-05T00:42:06.412Z,8.7
2023-02-05T00:43:16.100Z,14.1
2023-02-05T00:44:23.910Z,8.3
2023-02-05T00:45:33.786Z,8.9
2023-02-05T00:46:45.995Z,7.1
2023-02-05T00:47:55.632Z,7.3
2023-02-05T00:49:05.873Z,13.8
2023-02-05T00:50:14.563Z,14.7
2023-02-05T00:51:23.616Z,35.3
2023-02-05T00:52:32.968Z,7.5
2023-02-05T00:53:41.159Z,8.8
2023-02-05T00:54:50.727Z,6.6
2023-02-05T00:55:59.250Z,9.1
2023-02-05T00:57:07.870Z,10.4
2023-02-05T00:58:15.394Z,8.9
2023-02-05T00:59:25.464Z,7.7
2023-02-05T01:00:34.541Z,8
2023-02-05T01:01:42.503Z,9.4
2023-02-05T01:02:51.787Z,8.6
2023-02-05T01:04:02.277Z,14.1
2023-02-05T01:05:12.189Z,9
2023-02-05T01:06:21.639Z,6.4
2023-02-05T01:07:30.798Z,28.2
2023-02-05T01:08:40.454Z,8.2
2023-02-05T01:09:48.439Z,17.5
2023-02-05T01:10:58.368Z,7.4
2023-02-05T01:12:07.112Z,18.1
2023-02-05T01:13:18.266Z,7.5
2023-02-05T01:14:27.240Z,13.4
2023-02-05T01:15:35.884Z,9.2
2023-02-05T01:16:44.417Z,13.3
2023-02-05T01:17:53.429Z,5.3
2023-02-05T01:19:01.895Z,6.6
2023-02-05T01:20:10.662Z,7.7
2023-02-05T01:21:20.116Z,5.6
2023-02-05T01:22:29.417Z,5.5
2023-02-05T01:23:38.075Z,7.6
2023-02-05T01:24:46.913Z,6.7
2023-02-05T01:25:56.935Z,7.3
2023-02-05T01:27:04.485Z,8.9
2023-02-05T01:28:13.807Z,6.8
2023-02-05T01:29:23.740Z,5.6
2023-02-05T01:30:33.241Z,7
2023-02-05T01:31:42.970Z,8.3
2023-02-05T01:32:52.058Z,19.8
2023-02-05T01:34:02.176Z,6.8
2023-02-05T01:35:12.070Z,8
2023-02-05T01:36:21.130Z,6.6
2023-02-05T01:37:31.106Z,8.2
2023-02-05T01:38:40.589Z,6.1
2023-02-05T01:39:52.032Z,6.9
2023-02-05T01:41:00.067Z,11
2023-02-05T01:42:10.290Z,8.3
2023-02-05T01:43:25.832Z,5.4
2023-02-05T01:44:35.314Z,5.4
2023-02-05T01:45:44.918Z,5.4
2023-02-05T01:47:05.036Z,8.7
2023-02-05T01:48:14.292Z,8.7
2023-02-05T01:49:23.082Z,6
2023-02-05T01:50:36.132Z,5.4
2023-02-05T01:51:47.813Z,5.7
2023-02-05T01:52:58.023Z,6.4
2023-02-05T01:54:12.143Z,6.1
2023-02-05T01:55:20.207Z,9.5
2023-02-05T01:56:28.651Z,5.9
2023-02-05T01:57:39.775Z,5.3
2023-02-05T01:58:49.226Z,5.9
2023-02-05T01:59:59.823Z,5.9
2023-02-05T02:01:08.038Z,6
2023-02-05T02:02:15.283Z,6.3
2023-02-05T02:03:25.586Z,6.9
2023-02-05T02:04:33.255Z,6.3
2023-02-05T02:05:44.906Z,6.1
2023-02-05T02:06:53.703Z,9.9
2023-02-05T02:08:03.025Z,7
2023-02-05T02:09:12.566Z,5.6
2023-02-05T02:10:23.101Z,6
2023-02-05T02:11:33.009Z,5.2
2023-02-05T02:12:42.279Z,4.5
2023-02-05T02:13:51.217Z,4.6
2023-02-05T02:15:01.315Z,4.6
2023-02-05T02:16:11.462Z,4.4
2023-02-05T02:17:22.456Z,4.7
2023-02-05T02:18:31.684Z,4.7
2023-02-05T02:19:41.009Z,5.5
2023-02-05T02:20:55.841Z,5.2
2023-02-05T02:22:09.736Z,4.8
2023-02-05T02:23:30.901Z,4.7
2023-02-05T02:24:46.225Z,6.3
2023-02-05T02:26:06.056Z,4.7
2023-02-05T02:27:24.120Z,4.5
2023-02-05T02:28:41.218Z,5
2023-02-05T02:29:52.632Z,5
2023-02-05T02:31:08.243Z,4.7
2023-02-05T02:32:20.196Z,5
2023-02-05T02:33:28.344Z,4.8
2023-02-05T02:34:39.698Z,5.1
2023-02-05T02:35:53.690Z,5.1
2023-02-05T02:37:09.945Z,5.9
2023-02-05T02:38:26.600Z,5.9
2023-02-05T02:39:38.004Z,5.6
2023-02-05T02:40:56.491Z,5.6
2023-02-05T02:42:12.268Z,6
2023-02-05T02:43:23.404Z,6.1
2023-02-05T02:44:37.222Z,7.9
2023-02-05T02:45:45.766Z,7
2023-02-05T02:46:57.086Z,6
2023-02-05T02:48:07.891Z,5.3
2023-02-05T02:49:15.708Z,5.5
2023-02-05T02:50:31.894Z,5.7
2023-02-05T02:51:42.992Z,4.8
2023-02-05T02:52:53.149Z,5
2023-02-05T02:54:01.797Z,5.2
2023-02-05T02:55:11.455Z,5.3
2023-02-05T02:56:19.915Z,5.6
2023-02-05T02:57:29.722Z,5.1
2023-02-05T02:58:40.146Z,5.1
2023-02-05T02:59:53.782Z,4.6
2023-02-05T03:01:01.517Z,5.3
2023-02-05T03:02:09.885Z,8.3
2023-02-05T03:03:19.699Z,8
2023-02-05T03:04:29.258Z,7.1
2023-02-05T03:05:47.293Z,7
2023-02-05T03:06:56.864Z,7.2
2023-02-05T03:08:04.889Z,7.1
2023-02-05T03:09:15.760Z,8.1
2023-02-05T03:10:32.592Z,7.7
2023-02-05T03:11:48.113Z,6.6
2023-02-05T03:12:56.900Z,6
2023-02-05T03:14:06.365Z,6.5
2023-02-05T03:15:16.316Z,7.4
2023-02-05T03:16:27.770Z,7.5
2023-02-05T03:17:37.890Z,7.4
2023-02-05T03:18:46.277Z,7.8
2023-02-05T03:19:56.150Z,8.2
2023-02-05T03:21:04.203Z,8.3
2023-02-05T03:22:12.544Z,8.2
2023-02-05T03:23:21.920Z,9.1
2023-02-05T03:24:32.430Z,8.8
2023-02-05T03:25:42.556Z,8.9
2023-02-05T03:26:50.628Z,6.6
2023-02-05T03:27:58.567Z,6.1
2023-02-05T03:29:06.733Z,5.7
2023-02-05T03:30:16.595Z,5.6
2023-02-05T03:31:25.852Z,6.2
2023-02-05T03:32:39.316Z,5.8
2023-02-05T03:33:56.344Z,5.7
2023-02-05T03:35:15.113Z,5.1
2023-02-05T03:36:33.131Z,6
2023-02-05T03:37:51.997Z,5.5
2023-02-05T03:39:09.579Z,5
2023-02-05T03:40:24.583Z,5.4
2023-02-05T03:41:39.440Z,5.8
2023-02-05T03:42:56.966Z,5.4
2023-02-05T03:44:10.623Z,5.7
2023-02-05T03:45:20.576Z,5.5
2023-02-05T03:46:33.227Z,5.6
2023-02-05T03:47:48.644Z,5.7
2023-02-05T03:49:08.455Z,5.6
2023-02-05T03:50:25.976Z,5.3
2023-02-05T03:51:38.215Z,5.9
2023-02-05T03:52:52.582Z,5.9
2023-02-05T03:54:11.976Z,5.9
2023-02-05T03:55:31.659Z,5.5
2023-02-05T03:56:43.772Z,5.9
2023-02-05T03:58:03.048Z,6.7
2023-02-05T03:59:17.980Z,5.6
2023-02-05T04:00:27.983Z,7.1
2023-02-05T04:01:37.888Z,10.6
2023-02-05T04:02:46.093Z,6.7
2023-02-05T04:03:56.030Z,5.9
2023-02-05T04:05:04.430Z,6.6
2023-02-05T04:06:14.178Z,6.6
2023-02-05T04:07:23.121Z,8
2023-02-05T04:08:31.109Z,7.6
2023-02-05T04:09:41.444Z,8.5
2023-02-05T04:10:51.679Z,7.6
2023-02-05T04:12:00.316Z,12.5
2023-02-05T04:13:09.505Z,16.1
2023-02-05T04:14:17.613Z,16.8
2023-02-05T04:15:25.963Z,15.1
2023-02-05T04:16:34.873Z,15.3
2023-02-05T04:17:42.368Z,20.6
2023-02-05T04:18:51.964Z,18.7
2023-02-05T04:20:00.883Z,26.8
2023-02-05T04:21:10.305Z,23
2023-02-05T04:22:19.607Z,23.8
2023-02-05T04:23:28.971Z,22.5
2023-02-05T04:24:36.829Z,20.1
2023-02-05T04:25:45.725Z,20.3
2023-02-05T04:26:55.362Z,23.1
2023-02-05T04:28:05.487Z,20.6
2023-02-05T04:29:15.464Z,21.3
2023-02-05T04:30:25.257Z,20.7
2023-02-05T04:31:34.893Z,19.7
2023-02-05T04:32:44.542Z,20.2
2023-02-05T04:33:54.529Z,18.7
2023-02-05T04:35:03.502Z,15.2
2023-02-05T04:36:12.575Z,14.8
2023-02-05T04:37:22.074Z,15.1
2023-02-05T04:38:30.052Z,13.5
2023-02-05T04:39:39.648Z,12.9
2023-02-05T04:40:48.473Z,12.6
2023-02-05T04:41:58.432Z,12.9
2023-02-05T04:43:07.091Z,12.6
2023-02-05T04:44:18.045Z,13.5
2023-02-05T04:45:26.373Z,13
2023-02-05T04:46:34.456Z,12.7
2023-02-05T04:47:43.627Z,12.5
2023-02-05T04:48:52.500Z,13
2023-02-05T04:50:01.481Z,11.7
2023-02-05T04:51:10.063Z,12.2
2023-02-05T04:52:19.124Z,11.6
2023-02-05T04:53:28.156Z,12.4
2023-02-05T04:54:39.549Z,12
2023-02-05T04:55:50.657Z,11.4
2023-02-05T04:57:01.313Z,12.6
2023-02-05T04:58:10.921Z,12.4
2023-02-05T04:59:20.558Z,12.4
2023-02-05T05:00:29.782Z,11.9
2023-02-05T05:01:38.700Z,12
2023-02-05T05:02:50.568Z,12.3
2023-02-05T05:03:59.695Z,11.7
2023-02-05T05:05:08.529Z,11.7
2023-02-05T05:06:18.172Z,11.6
2023-02-05T05:07:28.172Z,11.5
2023-02-05T05:08:38.290Z,11.8
2023-02-05T05:09:48.407Z,10.2
2023-02-05T05:10:57.776Z,10.5
2023-02-05T05:12:07.009Z,10.5
2023-02-05T05:13:16.345Z,10.4
2023-02-05T05:14:27.861Z,10.7
2023-02-05T05:15:37.124Z,9.3
2023-02-05T05:16:45.669Z,11.1
2023-02-05T05:17:55.099Z,11.2
2023-02-05T05:19:06.145Z,10.7
2023-02-05T05:20:18.024Z,11.5
2023-02-05T05:21:27.264Z,11.6
2023-02-05T05:22:36.324Z,10.1
2023-02-05T05:23:46.809Z,10.4
2023-02-05T05:24:56.657Z,11
2023-02-05T05:26:07.216Z,10.6
2023-02-05T05:27:16.853Z,15.1
2023-02-05T05:28:28.501Z,14.6
2023-02-05T05:29:39.432Z,17.5
2023-02-05T05:30:48.542Z,21
2023-02-05T05:31:58.317Z,22.3
2023-02-05T05:33:08.233Z,24.1
2023-02-05T05:34:17.006Z,26
2023-02-05T05:35:25.147Z,23.6
2023-02-05T05:36:32.860Z,21.5
2023-02-05T05:37:45.250Z,18.3
2023-02-05T05:38:54.625Z,17.6
2023-02-05T05:40:02.421Z,16.6
2023-02-05T05:41:18.038Z,14.6
2023-02-05T05:42:33.764Z,13.5
2023-02-05T05:43:48.148Z,14.2
2023-02-05T05:44:59.550Z,14.3
2023-02-05T05:46:08.467Z,15.5
2023-02-05T05:47:19.090Z,19.2
2023-02-05T05:48:27.453Z,18.4
2023-02-05T05:49:37.730Z,18.1
2023-02-05T05:50:45.433Z,18.2
2023-02-05T05:51:52.949Z,17.9
2023-02-05T05:53:02.902Z,18.2
2023-02-05T05:54:12.297Z,17.9
2023-02-05T05:55:20.732Z,18.2
2023-02-05T05:56:29.529Z,18
2023-02-05T05:57:40.167Z,17.7
2023-02-05T05:58:49.001Z,17.6
2023-02-05T05:59:57.439Z,17
2023-02-05T06:01:06.620Z,16.2
2023-02-05T06:02:16.397Z,15.9
2023-02-05T06:03:26.280Z,17.5
2023-02-05T06:04:36.673Z,21.5
2023-02-05T06:05:45.193Z,20.1
2023-02-05T06:06:55.455Z,20.4
2023-02-05T06:08:05.210Z,17.5
2023-02-05T06:09:13.576Z,16
2023-02-05T06:10:23.748Z,15
2023-02-05T06:11:32.089Z,13.7
2023-02-05T06:12:41.809Z,14.9
2023-02-05T06:13:50.291Z,14.3
2023-02-05T06:14:59.359Z,14.1
2023-02-05T06:16:11.876Z,13.6
2023-02-05T06:17:22.150Z,13.9
2023-02-05T06:18:31.838Z,12.6
2023-02-05T06:19:40.312Z,11
2023-02-05T06:20:48.830Z,11.5
2023-02-05T06:21:57.030Z,10.8
2023-02-05T06:23:06.515Z,10.8
2023-02-05T06:24:15.046Z,10.5
2023-02-05T06:25:24.724Z,10.6
2023-02-05T06:26:33.934Z,10.4
2023-02-05T06:27:43.734Z,11
2023-02-05T06:28:54.455Z,11.5
2023-02-05T06:30:03.592Z,10.2
2023-02-05T06:31:12.947Z,11.1
2023-02-05T06:32:22.296Z,11.5
2023-02-05T06:33:32.005Z,11.5
2023-02-05T06:34:42.588Z,10.6
2023-02-05T06:35:51.421Z,13.2
2023-02-05T06:36:59.501Z,12
2023-02-05T06:38:12.532Z,11.8
2023-02-05T06:39:21.207Z,12.7
2023-02-05T06:40:30.428Z,12.2
2023-02-05T06:41:37.857Z,11.8
2023-02-05T06:42:46.720Z,11.9
2023-02-05T06:43:54.156Z,11.1
2023-02-05T06:45:04.084Z,11.2
2023-02-05T06:46:14.685Z,11.4
2023-02-05T06:47:23.857Z,10.4
2023-02-05T06:48:33.806Z,10.4
2023-02-05T06:49:44.541Z,10.7
2023-02-05T06:50:54.437Z,11
2023-02-05T06:52:04.225Z,13.8
2023-02-05T06:53:13.622Z,16
2023-02-05T06:54:22.517Z,15.4
2023-02-05T06:55:32.530Z,14.5
2023-02-05T06:56:40.792Z,15.5
2023-02-05T06:57:49.874Z,16.2
2023-02-05T06:58:58.569Z,15.2
2023-02-05T07:00:08.784Z,17.6
2023-02-05T07:01:19.218Z,18.7
2023-02-05T07:02:28.217Z,17
2023-02-05T07:03:36.333Z,18.4
2023-02-05T07:04:44.753Z,20.1
2023-02-05T07:05:53.964Z,20.6
2023-02-05T07:07:03.404Z,20.3
2023-02-05T07:08:10.712Z,19.1
2023-02-05T07:09:21.773Z,18.9
2023-02-05T07:10:30.239Z,19.6
2023-02-05T07:11:38.744Z,19.2
2023-02-05T07:12:48.179Z,18.4
2023-02-05T07:13:56.140Z,18.8
2023-02-05T07:15:09.097Z,18.3
2023-02-05T07:16:19.241Z,17.5
2023-02-05T07:17:29.506Z,17.4
2023-02-05T07:18:37.570Z,17.7
2023-02-05T07:19:47.581Z,17.8
2023-02-05T07:20:57.318Z,17.5
2023-02-05T07:22:05.537Z,18.9
2023-02-05T07:23:14.565Z,19.1
2023-02-05T07:24:24.375Z,19
2023-02-05T07:25:31.882Z,19.5
2023-02-05T07:26:44.299Z,19.1
2023-02-05T07:27:52.769Z,18.5
2023-02-05T07:29:03.018Z,17.8
2023-02-05T07:30:12.298Z,16.6
2023-02-05T07:31:20.741Z,16.3
2023-02-05T07:32:29.739Z,15.8
2023-02-05T07:33:38.148Z,16.3
2023-02-05T07:34:46.917Z,17
2023-02-05T07:35:56.980Z,16.1
2023-02-05T07:37:08.090Z,15.8
2023-02-05T07:38:16.577Z,15.6
2023-02-05T07:39:25.845Z,16.1
2023-02-05T07:40:33.255Z,16.8
2023-02-05T07:41:42.583Z,14.5
2023-02-05T07:42:53.271Z,14
2023-02-05T07:44:03.139Z,14.1
2023-02-05T07:45:15.798Z,12.5
2023-02-05T07:46:24.987Z,12.4
2023-02-05T07:47:35.964Z,12.9
2023-02-05T07:48:44.651Z,12.7
2023-02-05T07:49:55.550Z,10.9
2023-02-05T07:51:04.769Z,11
2023-02-05T07:52:12.235Z,10.9
2023-02-05T07:53:23.397Z,9.1
2023-02-05T07:54:31.609Z,9.5
2023-02-05T07:55:39.973Z,9.3
2023-02-05T07:56:51.248Z,9.7
2023-02-05T07:58:02.214Z,8.3
2023-02-05T07:59:10.058Z,8.7
2023-02-05T08:00:19.992Z,8.7
2023-02-05T08:01:28.991Z,8.7
2023-02-05T08:02:38.279Z,7.5
2023-02-05T08:03:49.996Z,7.4
2023-02-05T08:05:00.669Z,7
2023-02-05T08:06:09.592Z,6.7
2023-02-05T08:07:20.438Z,7.1
2023-02-05T08:08:30.406Z,6.9
2023-02-05T08:09:39.891Z,6.8
2023-02-05T08:10:47.228Z,6.1
2023-02-05T08:12:07.645Z,7.3
2023-02-05T08:13:19.012Z,7.1
2023-02-05T08:14:29.678Z,6.8
2023-02-05T08:15:42.417Z,6.3
2023-02-05T08:16:52.348Z,6.9
2023-02-05T08:18:02.468Z,7.5
2023-02-05T08:19:14.355Z,7.4
2023-02-05T08:20:24.700Z,7
2023-02-05T08:21:35.613Z,7.4
2023-02-05T08:22:43.980Z,6.7
2023-02-05T08:23:51.787Z,7.3
2023-02-05T08:25:01.865Z,7.6
2023-02-05T08:26:10.089Z,7.5
2023-02-05T08:27:19.844Z,6.9
2023-02-05T08:28:29.740Z,6.8
2023-02-05T08:29:39.112Z,8.3
2023-02-05T08:30:49.083Z,7.2
2023-02-05T08:31:59.555Z,6.7
2023-02-05T08:33:09.230Z,6.8
2023-02-05T08:34:20.942Z,7.9
2023-02-05T08:35:28.942Z,7.4
2023-02-05T08:36:36.171Z,7.1
2023-02-05T08:37:45.735Z,7.3
2023-02-05T08:38:55.956Z,9.5
2023-02-05T08:40:07.312Z,9
2023-02-05T08:41:18.038Z,7.6
2023-02-05T08:42:28.060Z,6.9
2023-02-05T08:43:37.575Z,7.6
2023-02-05T08:44:45.006Z,9.1
2023-02-05T08:45:55.504Z,6.9
2023-02-05T08:47:06.207Z,6.4
2023-02-05T08:48:16.089Z,6.6
2023-02-05T08:49:26.520Z,6.6
2023-02-05T08:50:37.480Z,6.6
2023-02-05T08:51:45.822Z,6.5
2023-02-05T08:52:52.838Z,7.2
2023-02-05T08:54:00.116Z,6.8
2023-02-05T08:55:07.191Z,7.4
2023-02-05T08:56:14.358Z,8.7
2023-02-05T08:57:21.911Z,9
2023-02-05T08:58:32.022Z,8.8
2023-02-05T08:59:39.137Z,7.7
2023-02-05T09:00:46.310Z,7.6
2023-02-05T09:01:53.416Z,7
2023-02-05T09:03:00.613Z,6.6
2023-02-05T09:04:07.842Z,7
2023-02-05T09:05:18.289Z,6.6
2023-02-05T09:06:25.543Z,7
2023-02-05T09:07:32.650Z,6.9
2023-02-05T09:08:39.640Z,7
2023-02-05T09:09:46.833Z,7.3
2023-02-05T09:10:54.006Z,6.9
2023-02-05T09:12:01.273Z,6.7
2023-02-05T09:13:09.023Z,7.3
2023-02-05T09:14:16.491Z,6.6
2023-02-05T09:15:23.919Z,6.6
2023-02-05T09:16:31.113Z,6.7
2023-02-05T09:17:38.207Z,6.5
2023-02-05T09:18:45.268Z,6.7
2023-02-05T09:19:52.555Z,7
2023-02-05T09:20:59.671Z,5.9
2023-02-05T09:22:07.221Z,6.3
2023-02-05T09:23:14.376Z,6.6
2023-02-05T09:24:21.393Z,6.2
2023-02-05T09:25:28.680Z,5.6
2023-02-05T09:26:35.717Z,6.1
2023-02-05T09:27:42.837Z,6.6
2023-02-05T09:28:50.023Z,6.4
2023-02-05T09:29:57.045Z,6.5
2023-02-05T09:31:04.302Z,13.6
2023-02-05T09:32:11.390Z,19.5
2023-02-05T09:33:18.827Z,23.1
2023-02-05T09:34:25.883Z,18.5
2023-02-05T09:35:33.283Z,11.1
2023-02-05T09:36:40.130Z,12.4
2023-02-05T09:37:47.326Z,13.3
2023-02-05T09:39:02.111Z,12
2023-02-05T09:40:19.897Z,7.8
2023-02-05T09:41:09.179Z,8.4
2023-02-05T09:42:16.350Z,9.4
2023-02-05T09:43:26.343Z,7.8
2023-02-05T09:44:43.764Z,8.4
2023-02-05T09:45:58.943Z,7.6
2023-02-05T09:47:14.313Z,6.6
2023-02-05T09:48:24.549Z,7.6
2023-02-05T09:49:42.227Z,6.8
2023-02-05T09:50:58.097Z,6.7
2023-02-05T09:52:04.663Z,6.9
2023-02-05T09:53:16.964Z,6.5
2023-02-05T09:54:24.370Z,7.4
2023-02-05T09:55:34.897Z,6.9
2023-02-05T09:56:44.738Z,7
2023-02-05T09:57:51.942Z,6.1
2023-02-05T09:58:58.919Z,6.7
2023-02-05T10:00:06.256Z,7.7
2023-02-05T10:01:24.018Z,7.8
2023-02-05T10:02:36.671Z,14.1
2023-02-05T10:03:43.763Z,12.3
2023-02-05T10:04:53.396Z,10.2
2023-02-05T10:06:00.507Z,9
2023-02-05T10:07:12.799Z,7.6
2023-02-05T10:08:20.272Z,6.4
2023-02-05T10:09:30.540Z,6.2
2023-02-05T10:10:45.750Z,7.2
2023-02-05T10:11:52.909Z,6.8
2023-02-05T10:13:02.650Z,7.7
2023-02-05T10:14:22.244Z,9.1
2023-02-05T10:15:37.466Z,8.8
2023-02-05T10:16:50.671Z,8.1
2023-02-05T10:18:11.768Z,8.9
2023-02-05T10:19:31.906Z,8.9
2023-02-05T10:20:51.678Z,8.9
2023-02-05T10:22:05.056Z,8.9
2023-02-05T10:23:24.177Z,8.9
2023-02-05T10:24:44.805Z,5.3
2023-02-05T10:26:00.747Z,5.6
2023-02-05T10:27:15.982Z,5.5
2023-02-05T10:28:30.990Z,5.7
2023-02-05T10:29:48.260Z,6
2023-02-05T10:31:00.107Z,6
2023-02-05T10:32:14.700Z,5.8
2023-02-05T10:33:30.849Z,6.5
2023-02-05T10:34:50.377Z,6.2
2023-02-05T10:36:03.786Z,7
2023-02-05T10:37:14.066Z,6.2
2023-02-05T10:38:25.645Z,7.3
2023-02-05T10:39:37.174Z,7.4
2023-02-05T10:40:49.357Z,8.3
2023-02-05T10:41:59.481Z,7.6
2023-02-05T10:43:13.704Z,7.1
2023-02-05T10:44:29.243Z,7.8
2023-02-05T10:45:44.639Z,7.7
2023-02-05T10:46:53.532Z,9.3
2023-02-05T10:48:07.722Z,10.8
2023-02-05T10:49:27.808Z,8.6
2023-02-05T10:50:42.039Z,9.3
2023-02-05T10:52:02.174Z,9.7
2023-02-05T10:53:11.823Z,8.2
2023-02-05T10:54:21.527Z,8
2023-02-05T10:55:33.752Z,9
2023-02-05T10:56:44.456Z,8.4
2023-02-05T10:57:54.932Z,8
2023-02-05T10:59:03.951Z,8.2
2023-02-05T11:00:14.736Z,8.4
2023-02-05T11:01:24.263Z,8.4
2023-02-05T11:02:40.976Z,9.3
2023-02-05T11:03:51.205Z,8
2023-02-05T11:05:03.239Z,9.2
2023-02-05T11:06:21.838Z,10.2
2023-02-05T11:07:33.723Z,12.4
2023-02-05T11:08:53.107Z,15.2
2023-02-05T11:10:02.185Z,16
2023-02-05T11:11:18.144Z,12.3
2023-02-05T11:12:28.743Z,12.6
2023-02-05T11:13:40.087Z,12.2
2023-02-05T11:14:49.444Z,11.9
2023-02-05T11:16:03.668Z,13.3
2023-02-05T11:17:14.311Z,13.3
2023-02-05T11:18:27.346Z,17
2023-02-05T11:19:40.634Z,10.7
2023-02-05T11:21:04.260Z,7.6
2023-02-05T11:22:13.299Z,9.3
2023-02-05T11:23:23.517Z,6.8
2023-02-05T11:24:34.822Z,6.1
2023-02-05T11:25:46.052Z,5.7
2023-02-05T11:27:00.722Z,6.1
2023-02-05T11:28:22.562Z,6.9
2023-02-05T11:29:37.273Z,7.5
2023-02-05T11:30:50.996Z,7
2023-02-05T11:31:56.571Z,6
2023-02-05T11:33:07.016Z,6.6
2023-02-05T11:34:22.047Z,7.8
2023-02-05T11:35:33.109Z,9.3
2023-02-05T11:36:43.830Z,8.6
2023-02-05T11:37:56.697Z,8.5
2023-02-05T11:39:13.054Z,21.2
2023-02-05T11:40:32.627Z,20.2
2023-02-05T11:41:44.302Z,20.3
2023-02-05T11:43:01.848Z,23.2
2023-02-05T11:44:12.191Z,15.7
2023-02-05T11:45:25.189Z,14.3
2023-02-05T11:46:35.749Z,14.9
2023-02-05T11:47:48.018Z,13.2
2023-02-05T11:48:59.630Z,10.8
2023-02-05T11:50:10.437Z,9.5
2023-02-05T11:51:30.487Z,7.5
2023-02-05T11:52:46.826Z,8.2
2023-02-05T11:53:58.053Z,8.9
2023-02-05T11:55:09.366Z,9.8
2023-02-05T11:56:29.411Z,6.8
2023-02-05T11:57:38.488Z,7.6
2023-02-05T11:58:50.344Z,7.4
2023-02-05T12:00:03.269Z,8.2
2023-02-05T12:01:17.368Z,6.9
2023-02-05T12:02:31.196Z,7.6
2023-02-05T12:03:43.273Z,7.8
2023-02-05T12:04:51.002Z,6.5
2023-02-05T12:06:09.650Z,5.9
2023-02-05T12:07:22.622Z,4.8
2023-02-05T12:08:32.126Z,4.9
2023-02-05T12:09:51.721Z,5.2
2023-02-05T12:10:59.806Z,6.6
2023-02-05T12:12:15.950Z,8
2023-02-05T12:13:35.921Z,8.9
2023-02-05T12:14:51.332Z,9.7
2023-02-05T12:16:09.200Z,10.4
2023-02-05T12:17:24.977Z,9.4
2023-02-05T12:18:41.307Z,11.4
2023-02-05T12:19:49.560Z,8.4
2023-02-05T12:21:07.648Z,6.6
2023-02-05T12:22:26.350Z,8.6
2023-02-05T12:23:35.290Z,7.1
2023-02-05T12:24:56.297Z,10
2023-02-05T12:26:15.129Z,9.2
2023-02-05T12:27:28.013Z,15.4
2023-02-05T12:28:45.280Z,16.2
2023-02-05T12:30:04.107Z,6.4
2023-02-05T12:31:21.551Z,6.6
2023-02-05T12:32:43.586Z,6.2
2023-02-05T12:33:57.428Z,5.1
2023-02-05T12:35:13.717Z,6
2023-02-05T12:36:29.771Z,6.1
2023-02-05T12:37:46.766Z,6.3
2023-02-05T12:39:03.191Z,5.5
2023-02-05T12:40:22.952Z,5.8
2023-02-05T12:41:42.729Z,6.1
2023-02-05T12:42:56.264Z,5.3
2023-02-05T12:44:09.892Z,6.4
2023-02-05T12:45:24.903Z,7
2023-02-05T12:46:44.370Z,7.9
2023-02-05T12:47:58.439Z,8.1
2023-02-05T12:49:17.651Z,7.2
2023-02-05T12:50:32.439Z,7.4
2023-02-05T12:51:49.816Z,7.6
2023-02-05T12:53:06.735Z,5.2
2023-02-05T12:54:20.687Z,4.2
2023-02-05T12:55:40.462Z,3.8
2023-02-05T12:56:56.723Z,4.3
2023-02-05T12:58:10.509Z,4.1
2023-02-05T12:59:22.307Z,5.2
2023-02-05T13:00:41.541Z,4.9
2023-02-05T13:01:57.066Z,5.2
2023-02-05T13:03:13.463Z,5.5
2023-02-05T13:04:30.649Z,5.7
2023-02-05T13:05:47.989Z,5.8
2023-02-05T13:07:07.061Z,7.4
2023-02-05T13:08:22.270Z,7
2023-02-05T13:09:37.975Z,8.2
2023-02-05T13:10:49.775Z,9.5
2023-02-05T13:12:03.446Z,10.8
2023-02-05T13:13:12.255Z,9.5
2023-02-05T13:14:20.333Z,9.5
2023-02-05T13:15:30.478Z,9.5
2023-02-05T13:16:39.018Z,7.7
2023-02-05T13:17:51.891Z,9.4
2023-02-05T13:19:09.583Z,7.4
2023-02-05T13:20:29.512Z,9.3
2023-02-05T13:21:46.780Z,7.3
2023-02-05T13:22:59.575Z,7.8
2023-02-05T13:24:12.203Z,7.9
2023-02-05T13:25:37.699Z,8.4
2023-02-05T13:26:42.823Z,9.3
2023-02-05T13:27:55.284Z,7.4
2023-02-05T13:29:15.588Z,7.2
2023-02-05T13:30:22.603Z,6.8
2023-02-05T13:31:30.856Z,7.3
2023-02-05T13:32:40.492Z,7.6
2023-02-05T13:33:50.199Z,6.7
2023-02-05T13:35:01.579Z,6.2
2023-02-05T13:36:09.950Z,7.4
2023-02-05T13:37:21.307Z,6.6
2023-02-05T13:38:38.978Z,6.8
2023-02-05T13:39:56.159Z,6.5
2023-02-05T13:41:13.807Z,5.5
2023-02-05T13:42:21.260Z,5.6
2023-02-05T13:43:40.151Z,5.6
2023-02-05T13:44:53.246Z,5.9
2023-02-05T13:46:07.755Z,5.7
2023-02-05T13:47:14.952Z,5.7
2023-02-05T13:48:29.764Z,5.7
2023-02-05T13:49:48.445Z,7.5
2023-02-05T13:51:01.325Z,6.8
2023-02-05T13:52:17.759Z,7.4
2023-02-05T13:53:37.748Z,7.5
2023-02-05T13:54:55.417Z,8.3
2023-02-05T13:56:09.227Z,7.9
2023-02-05T13:57:24.439Z,7.6
2023-02-05T13:58:43.124Z,7.6
2023-02-05T13:59:57.491Z,7
2023-02-05T14:01:05.467Z,6.5
2023-02-05T14:02:24.669Z,6.4
2023-02-05T14:03:44.038Z,6.9
2023-02-05T14:04:57.454Z,6.7
2023-02-05T14:06:04.879Z,6.6
2023-02-05T14:07:17.715Z,8
2023-02-05T14:08:29.491Z,6.8
2023-02-05T14:09:37.615Z,6.7
2023-02-05T14:10:45.047Z,6.9
2023-02-05T14:11:52.667Z,7
2023-02-05T14:13:00.290Z,7
2023-02-05T14:14:14.167Z,7.2
2023-02-05T14:15:21.977Z,6.6
2023-02-05T14:16:28.978Z,6.5
2023-02-05T14:17:36.886Z,6.8
2023-02-05T14:18:47.809Z,7.8
2023-02-05T14:20:03.039Z,10.6
2023-02-05T14:21:21.658Z,7.9
2023-02-05T14:22:34.032Z,7
2023-02-05T14:23:44.256Z,7.2
2023-02-05T14:24:53.178Z,7.2
2023-02-05T14:26:00.745Z,7.5
2023-02-05T14:27:08.727Z,8.6
2023-02-05T14:28:25.116Z,7.7
2023-02-05T14:29:33.505Z,6.2
2023-02-05T14:30:41.979Z,6.4
2023-02-05T14:31:55.582Z,6.8
2023-02-05T14:33:04.776Z,7.5
2023-02-05T14:34:23.183Z,10.2
2023-02-05T14:35:30.713Z,7.6
2023-02-05T14:36:38.543Z,9.1
2023-02-05T14:37:46.683Z,9.1
2023-02-05T14:38:55.457Z,6.3
2023-02-05T14:40:06.224Z,6.9
2023-02-05T14:41:24.206Z,6.5
2023-02-05T14:42:35.583Z,8.1
2023-02-05T14:43:43.956Z,7.9
2023-02-05T14:45:03.157Z,8.1
2023-02-05T14:46:13.455Z,8.2
2023-02-05T14:47:24.416Z,8
2023-02-05T14:48:31.787Z,7.6
2023-02-05T14:49:39.570Z,9
2023-02-05T14:50:49.331Z,9.3
2023-02-05T14:52:06.974Z,12.3
2023-02-05T14:53:25.299Z,10.6
2023-02-05T14:54:33.035Z,10.6
2023-02-05T14:55:41.702Z,9.6
2023-02-05T14:56:50.356Z,9.5
2023-02-05T14:57:58.635Z,8.1
2023-02-05T14:59:12.289Z,8.6
2023-02-05T15:00:26.898Z,9.4
2023-02-05T15:01:39.983Z,8.8
2023-02-05T15:02:48.137Z,10.9
2023-02-05T15:04:01.657Z,7.3
2023-02-05T15:05:09.838Z,7.7
2023-02-05T15:06:17.318Z,7.9
2023-02-05T15:07:25.432Z,7.8
2023-02-05T15:08:33.700Z,7.5
2023-02-05T15:09:46.491Z,7.8
2023-02-05T15:11:06.310Z,9.4
2023-02-05T15:12:19.295Z,11.9
2023-02-05T15:13:34.714Z,11.3
2023-02-05T15:14:43.138Z,14.5
2023-02-05T15:15:56.291Z,13.8
2023-02-05T15:17:11.855Z,13.6
2023-02-05T15:18:19.884Z,15.3
2023-02-05T15:19:32.312Z,13.7
2023-02-05T15:20:49.749Z,14
2023-02-05T15:21:57.096Z,13.3
2023-02-05T15:23:04.508Z,13.7
2023-02-05T15:24:20.117Z,16
2023-02-05T15:25:27.085Z,10.2
2023-02-05T15:26:45.211Z,10.5
2023-02-05T15:28:01.027Z,12.1
2023-02-05T15:29:17.071Z,18.8
2023-02-05T15:30:34.384Z,22.1
2023-02-05T15:31:47.506Z,13.8
2023-02-05T15:32:57.306Z,12.3
2023-02-05T15:34:06.430Z,13.3
2023-02-05T15:35:24.878Z,13.5
2023-02-05T15:36:32.100Z,13.4
2023-02-05T15:37:41.434Z,13.3
2023-02-05T15:38:49.586Z,11.7
2023-02-05T15:39:57.621Z,10.6
2023-02-05T15:41:14.815Z,9.8
2023-02-05T15:42:22.429Z,10.5
2023-02-05T15:43:32.823Z,11.4
2023-02-05T15:44:42.035Z,11
2023-02-05T15:45:49.558Z,11.3
2023-02-05T15:47:02.055Z,16.2
2023-02-05T15:48:11.077Z,18.5
2023-02-05T15:49:18.112Z,22.9
2023-02-05T15:50:26.744Z,29.6
2023-02-05T15:51:34.779Z,28.4
2023-02-05T15:52:42.049Z,28.9
2023-02-05T15:53:50.430Z,27.3
2023-02-05T15:54:59.038Z,25.2
2023-02-05T15:56:06.568Z,28.8
2023-02-05T15:57:18.836Z,32.2
2023-02-05T15:58:26.896Z,23.4
2023-02-05T15:59:35.783Z,21
2023-02-05T16:00:44.315Z,24.3
2023-02-05T16:01:52.747Z,24.2
2023-02-05T16:03:04.139Z,21.7
2023-02-05T16:04:11.402Z,23.1
2023-02-05T16:05:25.170Z,22.8
2023-02-05T16:06:33.535Z,21.7
2023-02-05T16:07:43.127Z,18.9
2023-02-05T16:08:54.609Z,19
2023-02-05T16:10:02.612Z,16.3
2023-02-05T16:11:10.794Z,17.4
2023-02-05T16:12:19.102Z,16
2023-02-05T16:13:27.310Z,16.8